Aviation Digital Data Service (ADDS)

Output produced by METARs form (2040 UTC 31 October 2014)
found at http://aviationweather.gov/adds/metars/
 
METAR text: KBFM 311953Z 31009G21KT 10SM CLR 24/07 A2993 RMK AO2 SLP136 T02440067
Conditions at: KBFM (MOBILE/BROOKLEY , AL, US) observed 1953 UTC 31 October 2014
Temperature: 24.4°C (76°F)
Dewpoint: 6.7°C (44°F) [RH = 32%]
Pressure (altimeter): 29.93 inches Hg (1013.6 mb)
[Sea-level pressure: 1013.6 mb]
Winds: from the NW (310 degrees) at 10 MPH (9 knots; 4.7 m/s)
gusting to 24 MPH (21 knots; 10.9 m/s)
Visibility: 10 or more miles (16+ km)
Ceiling: at least 12,000 feet AGL
Clouds: sky clear below 12,000 feet AGL
Weather: no significant weather observed at this time